Time;durP1;ratioP1;P1;durP2;ratioP2;P2;SDS_P1;SDS_P2;PMS_P1;PMS_P2;Temp;Humidity;BMP_temperature;BMP_pressure;BME280_temperature;BME280_humidity;BME280_pressure;Samples;Min_cycle;Max_cycle;Signal;HPM_P1;HPM_P2
2022/08/17 00:00:26;;;;;;;3.85;2.95;;;22.40;87.90;;;;;;5052823;28;20021;-61
2022/08/17 00:03:09;;;;;;;3.70;3.28;;;22.40;87.60;;;;;;5051951;28;20025;-61
2022/08/17 00:05:44;;;;;;;4.72;3.42;;;22.40;87.30;;;;;;5052630;28;20029;-61
2022/08/17 00:08:13;;;;;;;3.53;3.20;;;22.40;87.20;;;;;;5051098;28;20021;-59
2022/08/17 00:10:39;;;;;;;3.10;2.80;;;22.30;87.20;;;;;;5053805;28;20033;-61
2022/08/17 00:13:08;;;;;;;3.80;3.00;;;22.30;87.30;;;;;;5051233;28;20447;-61
2022/08/17 00:15:34;;;;;;;4.05;3.20;;;22.30;87.30;;;;;;5053197;28;20459;-61
2022/08/17 00:18:00;;;;;;;3.08;2.78;;;22.30;87.40;;;;;;5053531;28;20064;-61
2022/08/17 00:20:25;;;;;;;3.67;3.28;;;22.30;87.30;;;;;;5047488;28;20051;-61
2022/08/17 00:23:02;;;;;;;3.17;2.88;;;22.30;87.30;;;;;;5051763;28;20037;-61
2022/08/17 00:25:27;;;;;;;4.43;3.42;;;22.40;87.30;;;;;;5053359;28;20032;-61
2022/08/17 00:27:53;;;;;;;3.42;3.13;;;22.40;87.50;;;;;;5052482;28;20531;-61
2022/08/17 00:30:19;;;;;;;3.30;3.00;;;22.30;87.20;;;;;;5041926;28;20116;-61
2022/08/17 00:32:46;;;;;;;3.10;2.65;;;22.30;87.30;;;;;;5052463;28;20053;-61
2022/08/17 00:35:14;;;;;;;3.42;3.13;;;22.30;87.40;;;;;;5060219;28;20384;-61
2022/08/17 00:57:57;;;;;;;3.38;2.90;;;22.40;88.00;;;;;;5051487;28;20384;-61
2022/08/17 01:00:27;;;;;;;2.92;2.58;;;22.40;88.00;;;;;;5040983;28;20032;-61
2022/08/17 01:02:58;;;;;;;2.40;2.20;;;22.40;88.10;;;;;;5049044;28;20112;-61
2022/08/17 01:05:26;;;;;;;3.50;3.10;;;22.40;88.20;;;;;;5056686;28;20029;-61
2022/08/17 01:07:53;;;;;;;3.00;2.70;;;22.40;88.20;;;;;;5053550;28;20109;-61
2022/08/17 01:10:37;;;;;;;2.92;2.47;;;22.50;88.40;;;;;;5052781;28;20353;-61
2022/08/17 01:13:03;;;;;;;6.25;3.17;;;22.40;88.60;;;;;;5052653;28;20384;-61
2022/08/17 01:15:34;;;;;;;3.33;2.90;;;22.40;88.60;;;;;;5051501;28;20337;-61
2022/08/17 01:17:59;;;;;;;3.07;2.77;;;22.50;88.90;;;;;;5052364;28;20095;-61
2022/08/17 01:20:25;;;;;;;3.47;3.00;;;22.50;88.80;;;;;;5051132;28;20484;-60
2022/08/17 01:22:52;;;;;;;3.63;2.90;;;22.40;88.80;;;;;;5048787;28;20028;-61
2022/08/17 01:25:19;;;;;;;4.68;3.00;;;22.40;88.90;;;;;;5051669;28;20032;-62
2022/08/17 01:27:45;;;;;;;4.10;2.92;;;22.40;88.70;;;;;;5042384;28;20040;-61
2022/08/17 01:30:12;;;;;;;4.30;3.30;;;22.40;88.70;;;;;;5038449;28;20095;-61
2022/08/17 01:32:38;;;;;;;3.85;3.38;;;22.40;88.70;;;;;;5050787;28;20066;-62
2022/08/17 01:35:06;;;;;;;3.92;3.47;;;22.40;88.50;;;;;;5060096;28;20047;-61
2022/08/17 01:37:38;;;;;;;3.33;3.03;;;22.40;88.40;;;;;;5050706;28;20051;-61
2022/08/17 01:40:10;;;;;;;3.72;3.10;;;22.30;88.00;;;;;;5049503;28;20112;-62
2022/08/17 01:42:42;;;;;;;3.20;2.90;;;22.30;88.10;;;;;;5045332;28;20044;-61
2022/08/17 01:45:16;;;;;;;4.40;3.42;;;22.20;88.10;;;;;;5051451;28;20144;-61
2022/08/17 01:47:42;;;;;;;4.75;3.97;;;22.20;88.10;;;;;;5050384;28;20025;-62
2022/08/17 01:50:21;;;;;;;3.38;3.08;;;22.20;88.10;;;;;;5046228;28;20104;-61
2022/08/17 01:52:53;;;;;;;3.10;2.80;;;22.10;87.90;;;;;;5045788;28;20040;-61
2022/08/17 01:55:23;;;;;;;3.30;3.00;;;22.10;88.10;;;;;;5046349;28;20033;-61
2022/08/17 01:57:49;;;;;;;;;;;22.10;88.10;;;;;;5044621;28;20040;-61
2022/08/17 02:00:15;;;;;;;3.25;2.83;;;22.00;87.70;;;;;;5050871;28;19936;-61
2022/08/17 02:02:41;;;;;;;2.67;2.47;;;22.10;88.10;;;;;;5042824;28;20858;-61
2022/08/17 02:05:07;;;;;;;3.90;3.28;;;22.00;88.10;;;;;;5050687;28;21642;-61
2022/08/17 02:07:35;;;;;;;4.03;3.35;;;22.00;88.10;;;;;;5050953;28;20025;-60
2022/08/17 02:10:03;;;;;;;3.50;3.13;;;22.00;87.90;;;;;;5051758;28;20025;-61
2022/08/17 02:12:30;;;;;;;4.75;2.78;;;22.00;88.10;;;;;;5053388;28;20120;-61
2022/08/17 02:14:55;;;;;;;4.68;3.40;;;22.00;88.20;;;;;;5051454;28;20021;-61
2022/08/17 02:17:21;;;;;;;3.63;3.30;;;21.90;88.10;;;;;;5048806;28;20484;-61
2022/08/17 02:19:47;;;;;;;3.60;3.00;;;21.90;88.10;;;;;;5051518;28;20036;-62
2022/08/17 02:22:14;;;;;;;3.22;2.80;;;21.90;88.20;;;;;;5056627;28;20033;-61
2022/08/17 02:24:40;;;;;;;3.03;2.72;;;21.90;88.20;;;;;;5051217;28;20029;-61
2022/08/17 02:27:06;;;;;;;3.78;2.97;;;21.90;88.30;;;;;;5051413;28;20048;-61
2022/08/17 02:29:32;;;;;;;3.25;2.90;;;21.90;88.20;;;;;;5050095;28;20064;-61
2022/08/17 02:31:58;;;;;;;4.40;3.00;;;21.90;87.90;;;;;;5042400;28;20499;-61
2022/08/17 02:34:26;;;;;;;3.40;2.92;;;21.90;88.00;;;;;;5051055;28;20044;-61
2022/08/17 02:36:52;;;;;;;3.88;3.10;;;21.90;88.10;;;;;;5050684;28;20512;-61
2022/08/17 02:39:18;;;;;;;3.67;3.17;;;21.90;88.30;;;;;;5041579;28;20029;-61
2022/08/17 02:41:44;;;;;;;3.83;3.08;;;21.90;88.20;;;;;;5054642;28;20515;-61
2022/08/17 02:44:10;;;;;;;3.22;2.92;;;21.90;88.30;;;;;;5054312;28;20025;-61
2022/08/17 02:46:36;;;;;;;3.45;2.92;;;21.80;88.40;;;;;;5045035;28;20033;-60
2022/08/17 02:49:03;;;;;;;4.63;2.78;;;21.90;89.30;;;;;;5049455;28;20091;-61
2022/08/17 02:51:30;;;;;;;2.92;2.60;;;21.90;88.70;;;;;;5043822;28;20025;-61
2022/08/17 02:53:56;;;;;;;3.63;3.30;;;21.80;88.60;;;;;;5049229;28;20052;-61
2022/08/17 02:56:22;;;;;;;3.35;2.97;;;21.90;88.70;;;;;;5054318;28;20032;-61
2022/08/17 02:58:48;;;;;;;3.30;2.92;;;21.80;88.80;;;;;;5053728;28;20037;-61
2022/08/17 03:01:13;;;;;;;8.25;3.53;;;21.80;89.00;;;;;;5053878;28;20025;-61
2022/08/17 03:03:39;;;;;;;3.83;3.33;;;21.80;89.00;;;;;;5053883;28;20057;-61
2022/08/17 03:06:08;;;;;;;4.15;3.47;;;21.90;89.10;;;;;;5050847;28;20033;-61
2022/08/17 03:08:36;;;;;;;3.40;2.65;;;21.80;89.20;;;;;;5052691;28;20507;-61
2022/08/17 03:11:02;;;;;;;3.13;2.78;;;21.80;89.20;;;;;;5057195;28;20036;-61
2022/08/17 03:13:29;;;;;;;2.60;2.40;;;21.90;89.50;;;;;;5056283;28;20033;-61
2022/08/17 03:15:55;;;;;;;3.65;3.05;;;21.90;89.50;;;;;;5050615;28;20420;-61
2022/08/17 03:18:22;;;;;;;3.40;2.85;;;21.90;89.70;;;;;;5052386;28;20063;-60
2022/08/17 03:20:48;;;;;;;3.72;3.00;;;21.90;89.80;;;;;;5043978;28;20017;-61
2022/08/17 03:23:14;;;;;;;3.20;2.90;;;22.00;90.00;;;;;;5062478;28;20112;-62
2022/08/17 03:25:42;;;;;;;3.72;3.00;;;22.00;90.00;;;;;;5044530;28;20105;-61
2022/08/17 03:28:09;;;;;;;3.20;2.60;;;22.10;90.00;;;;;;5046820;28;20044;-61
2022/08/17 03:30:35;;;;;;;3.38;2.83;;;22.20;90.00;;;;;;5051509;28;20407;-60
2022/08/17 03:33:03;;;;;;;3.28;2.80;;;22.20;90.00;;;;;;5051371;28;20036;-61
2022/08/17 03:35:32;;;;;;;3.25;2.95;;;22.30;90.00;;;;;;5057004;28;20067;-61
2022/08/17 03:37:59;;;;;;;3.70;3.30;;;22.30;90.00;;;;;;5045237;28;20380;-61
2022/08/17 03:40:25;;;;;;;3.95;3.22;;;22.40;90.00;;;;;;5045621;28;20028;-61
2022/08/17 03:42:53;;;;;;;4.03;3.08;;;22.50;90.10;;;;;;5035498;28;20033;-61
2022/08/17 03:56:41;;;;;;;3.85;3.45;;;22.60;90.10;;;;;;5051177;28;21803;-61
2022/08/17 03:56:41;;;;;;;3.47;2.90;;;22.90;89.40;;;;;;5053502;28;20503;-61
2022/08/17 03:59:16;;;;;;;2.95;2.65;;;22.90;89.20;;;;;;5053151;28;20017;-61
2022/08/17 04:01:48;;;;;;;2.88;2.60;;;23.00;89.20;;;;;;5051839;28;20032;-60
2022/08/17 04:04:14;;;;;;;3.20;2.90;;;23.10;89.30;;;;;;5053675;28;20021;-61
2022/08/17 04:06:40;;;;;;;3.53;3.22;;;23.20;89.70;;;;;;5051957;28;20013;-61
2022/08/17 04:09:06;;;;;;;3.30;2.75;;;23.20;89.70;;;;;;5056503;28;20024;-62
2022/08/17 04:11:33;;;;;;;3.63;3.00;;;23.40;89.70;;;;;;5051614;28;20083;-60
2022/08/17 04:14:00;;;;;;;3.80;3.30;;;23.50;89.10;;;;;;5053691;28;20104;-61
2022/08/17 04:16:26;;;;;;;3.15;2.75;;;23.60;88.60;;;;;;5052966;28;20086;-61
2022/08/17 04:18:52;;;;;;;3.40;2.97;;;23.70;88.30;;;;;;5053380;28;20029;-61
2022/08/17 04:21:21;;;;;;;4.32;2.92;;;23.80;87.60;;;;;;5052962;28;20025;-61
2022/08/17 04:23:46;;;;;;;2.80;2.47;;;23.90;87.30;;;;;;5053264;28;20025;-62
2022/08/17 04:26:13;;;;;;;4.25;3.30;;;24.00;86.80;;;;;;5055257;28;20036;-61
2022/08/17 04:28:42;;;;;;;3.92;3.10;;;24.10;86.30;;;;;;5052949;28;20058;-62
2022/08/17 04:31:12;;;;;;;4.60;3.00;;;24.20;85.80;;;;;;5050221;28;20124;-61
2022/08/17 04:33:38;;;;;;;3.35;2.72;;;24.30;85.50;;;;;;5052580;28;20063;-61
2022/08/17 04:36:06;;;;;;;3.63;3.17;;;24.30;85.30;;;;;;5055695;28;20064;-61
2022/08/17 04:38:35;;;;;;;3.20;2.90;;;24.30;85.10;;;;;;5048232;28;20029;-61
2022/08/17 04:43:48;;;;;;;3.53;2.72;;;24.40;85.60;;;;;;5052180;28;20031;-61
2022/08/17 04:46:16;;;;;;;3.95;3.33;;;24.60;85.20;;;;;;5051681;28;20108;-60
2022/08/17 04:48:45;;;;;;;3.47;3.00;;;24.80;85.00;;;;;;5049818;28;20087;-60
2022/08/17 04:51:17;;;;;;;5.00;3.40;;;25.00;83.90;;;;;;5052923;28;20025;-61
2022/08/17 04:53:46;;;;;;;3.08;2.78;;;25.20;82.80;;;;;;5051832;28;20047;-60
2022/08/17 04:56:17;;;;;;;4.70;3.13;;;25.20;82.30;;;;;;5051590;28;20384;-63
2022/08/17 04:58:45;;;;;;;3.63;3.00;;;25.20;82.00;;;;;;5048335;28;20028;-60
2022/08/17 05:01:11;;;;;;;4.05;2.78;;;25.20;82.10;;;;;;5047610;28;20021;-60
2022/08/17 05:03:37;;;;;;;2.78;2.55;;;25.20;82.30;;;;;;5048994;28;20029;-60
2022/08/17 05:06:03;;;;;;;2.97;2.67;;;25.30;82.30;;;;;;5052104;28;20029;-60
2022/08/17 05:08:29;;;;;;;3.50;2.90;;;25.40;82.30;;;;;;5052525;28;20022;-60
2022/08/17 05:10:54;;;;;;;3.08;2.78;;;25.50;82.40;;;;;;5055083;28;20029;-60
2022/08/17 05:13:23;;;;;;;3.17;2.88;;;25.60;82.20;;;;;;5048276;28;20021;-60
2022/08/17 05:15:53;;;;;;;3.10;2.60;;;25.70;81.70;;;;;;5050740;28;20104;-59
2022/08/17 05:18:20;;;;;;;3.65;2.88;;;25.90;81.40;;;;;;5054815;28;20021;-60
2022/08/17 05:20:46;;;;;;;3.10;2.83;;;26.00;80.90;;;;;;5048629;28;20040;-60
2022/08/17 05:23:14;;;;;;;4.70;3.03;;;26.10;80.50;;;;;;5050224;28;20021;-60
2022/08/17 05:25:46;;;;;;;4.50;3.40;;;26.10;80.10;;;;;;5051674;28;20404;-60
2022/08/17 05:28:12;;;;;;;3.90;2.97;;;26.00;79.70;;;;;;5050977;28;20021;-61
2022/08/17 05:30:40;;;;;;;3.78;3.20;;;26.00;80.00;;;;;;5050579;28;20033;-60
2022/08/17 05:33:27;;;;;;;3.70;3.00;;;26.00;80.00;;;;;;5050646;28;20084;-60
2022/08/17 05:35:55;;;;;;;3.25;2.95;;;26.10;80.10;;;;;;5045633;28;20029;-61
2022/08/17 05:38:23;;;;;;;4.63;3.22;;;26.20;79.60;;;;;;5046619;28;20028;-60
2022/08/17 05:40:49;;;;;;;5.18;3.40;;;26.50;79.10;;;;;;5043550;28;20029;-59
2022/08/17 05:43:24;;;;;;;3.80;3.17;;;26.60;78.60;;;;;;5046021;28;20091;-60
2022/08/17 05:46:02;;;;;;;3.30;2.92;;;26.70;78.20;;;;;;5045044;28;20423;-60
2022/08/17 05:48:34;;;;;;;2.85;2.65;;;26.70;78.30;;;;;;5043624;28;20052;-60
2022/08/17 05:51:15;;;;;;;4.47;3.20;;;26.70;78.50;;;;;;5046275;28;20021;-60
2022/08/17 05:53:47;;;;;;;4.45;3.00;;;26.70;78.50;;;;;;5044845;28;20057;-60
2022/08/17 05:56:31;;;;;;;4.57;3.08;;;26.60;78.50;;;;;;5041255;28;20099;-61
2022/08/17 05:59:23;;;;;;;4.72;3.75;;;26.60;79.00;;;;;;5042728;28;20342;-59
2022/08/17 06:01:54;;;;;;;4.10;3.67;;;26.50;78.70;;;;;;5042039;28;20165;-60
2022/08/17 06:04:29;;;;;;;4.88;3.67;;;26.50;78.70;;;;;;5043783;28;20025;-60
2022/08/17 06:07:04;;;;;;;4.07;3.28;;;26.40;78.80;;;;;;5037193;28;20054;-58
2022/08/17 06:10:04;;;;;;;4.20;3.45;;;26.40;79.00;;;;;;5033802;28;20132;-60
2022/08/17 06:13:03;;;;;;;3.70;2.78;;;26.40;79.20;;;;;;5040239;28;20361;-61
2022/08/17 06:15:32;;;;;;;4.57;2.90;;;26.40;79.40;;;;;;5045085;28;20126;-62
2022/08/17 06:18:05;;;;;;;3.75;2.92;;;26.40;79.60;;;;;;5046547;28;20033;-63
2022/08/17 06:20:47;;;;;;;4.00;3.60;;;26.40;79.60;;;;;;5044294;28;20067;-63
2022/08/17 06:23:31;;;;;;;3.60;3.22;;;26.40;79.50;;;;;;5043736;28;20562;-62
2022/08/17 06:26:02;;;;;;;3.83;2.97;;;26.40;79.50;;;;;;5044790;28;20025;-62
2022/08/17 06:28:45;;;;;;;2.83;2.63;;;26.40;79.60;;;;;;5044247;28;20021;-60
2022/08/17 06:31:20;;;;;;;2.90;2.60;;;26.40;79.70;;;;;;5033254;28;20039;-61
2022/08/17 06:33:46;;;;;;;3.80;3.05;;;26.40;79.80;;;;;;5023818;28;20048;-61
2022/08/17 06:36:33;;;;;;;3.60;3.28;;;26.40;79.80;;;;;;5033451;28;20118;-55
2022/08/17 06:39:07;;;;;;;5.63;3.80;;;26.40;79.80;;;;;;5033396;28;20159;-55
2022/08/17 06:41:50;;;;;;;5.70;4.03;;;26.40;79.70;;;;;;5031972;28;20367;-55
2022/08/17 06:44:29;;;;;;;5.40;3.72;;;26.40;79.50;;;;;;5040272;28;20059;-60
2022/08/17 06:47:04;;;;;;;4.22;3.83;;;26.30;79.80;;;;;;5032277;28;20143;-61
2022/08/17 06:49:45;;;;;;;4.45;3.40;;;26.30;79.80;;;;;;5037170;28;20024;-61
2022/08/17 06:52:33;;;;;;;4.43;3.53;;;26.30;79.90;;;;;;5038887;28;20943;-62
2022/08/17 06:55:12;;;;;;;4.18;3.63;;;26.20;79.80;;;;;;5042887;28;20507;-61
2022/08/17 06:57:45;;;;;;;3.55;3.10;;;26.20;80.00;;;;;;5038321;28;20047;-61
2022/08/17 07:00:21;;;;;;;4.05;3.45;;;26.20;80.20;;;;;;5032883;28;20029;-60
2022/08/17 07:02:55;;;;;;;3.70;3.30;;;26.20;80.90;;;;;;5023287;28;20037;-60
2022/08/17 07:05:50;;;;;;;3.70;3.20;;;26.30;80.40;;;;;;5030406;28;20104;-60
2022/08/17 07:08:39;;;;;;;4.38;3.45;;;26.30;80.20;;;;;;5033650;28;20043;-60
2022/08/17 07:11:13;;;;;;;4.68;3.00;;;26.30;80.20;;;;;;5037414;28;20124;-60
2022/08/17 07:14:12;;;;;;;3.60;3.20;;;26.30;80.30;;;;;;5025717;28;20581;-59
2022/08/17 07:16:45;;;;;;;5.80;3.88;;;26.30;80.10;;;;;;5028234;28;20033;-59
2022/08/17 07:19:15;;;;;;;4.80;3.70;;;26.30;80.30;;;;;;5020464;28;20029;-59
2022/08/17 07:22:12;;;;;;;4.15;3.75;;;26.30;80.30;;;;;;5037572;28;20037;-59
2022/08/17 07:24:51;;;;;;;4.78;3.85;;;26.30;80.10;;;;;;5036012;28;20498;-61
2022/08/17 07:27:23;;;;;;;3.42;3.10;;;26.30;80.50;;;;;;5026292;28;20061;-59
2022/08/17 07:29:56;;;;;;;4.43;3.58;;;26.30;80.20;;;;;;5028288;28;20120;-60
2022/08/17 07:32:26;;;;;;;4.68;3.83;;;26.20;80.20;;;;;;5035176;28;20041;-61
2022/08/17 07:34:59;;;;;;;3.58;3.03;;;26.30;80.30;;;;;;5029409;28;20040;-60
2022/08/17 07:37:25;;;;;;;4.28;3.78;;;26.30;80.30;;;;;;5025371;28;20028;-59
2022/08/17 07:39:50;;;;;;;4.75;3.78;;;26.20;80.20;;;;;;5030023;28;20384;-60
2022/08/17 07:42:16;;;;;;;4.20;3.65;;;26.20;80.30;;;;;;5028134;28;20106;-59
2022/08/17 07:44:53;;;;;;;5.32;3.70;;;26.20;80.20;;;;;;5021794;28;20035;-60
2022/08/17 07:50:26;;;;;;;3.83;3.40;;;26.20;80.60;;;;;;5025584;28;20040;-60
2022/08/17 07:52:52;;;;;;;4.45;3.58;;;26.20;80.70;;;;;;5026103;28;20038;-59
2022/08/17 07:55:28;;;;;;;4.07;3.47;;;26.20;80.90;;;;;;5020004;28;21306;-59
2022/08/17 07:57:56;;;;;;;5.10;4.22;;;26.30;80.70;;;;;;5024512;28;20112;-58
2022/08/17 08:00:23;;;;;;;5.35;4.28;;;26.30;80.80;;;;;;5016987;28;20087;-60
2022/08/17 08:03:02;;;;;;;3.72;3.33;;;26.30;80.80;;;;;;5026540;28;20040;-61
2022/08/17 08:05:29;;;;;;;5.82;4.22;;;26.30;80.80;;;;;;5027396;28;20376;-62
2022/08/17 08:08:02;;;;;;;5.32;4.25;;;26.30;81.00;;;;;;5034188;28;20207;-59
2022/08/17 08:10:32;;;;;;;5.15;4.22;;;26.20;80.90;;;;;;5025482;28;20029;-60
2022/08/17 08:13:23;;;;;;;5.28;3.80;;;26.30;81.00;;;;;;5032668;28;20433;-60
2022/08/17 08:15:53;;;;;;;4.60;3.78;;;26.30;81.20;;;;;;5023896;28;20517;-60
2022/08/17 08:18:46;;;;;;;5.10;3.87;;;26.30;81.00;;;;;;5020258;28;20091;-59
2022/08/17 08:21:41;;;;;;;4.20;3.80;;;26.30;81.00;;;;;;5025354;28;20553;-59
2022/08/17 08:24:44;;;;;;;4.15;3.30;;;26.30;81.00;;;;;;5020237;28;20609;-61
2022/08/17 08:27:21;;;;;;;5.13;3.53;;;26.30;81.00;;;;;;5027079;28;20090;-58
2022/08/17 08:29:56;;;;;;;5.38;4.50;;;26.20;81.10;;;;;;5035900;28;20031;-63
2022/08/17 08:32:46;;;;;;;5.30;4.18;;;26.20;81.00;;;;;;5024375;28;20137;-60
2022/08/17 08:35:16;;;;;;;5.28;4.22;;;26.20;80.90;;;;;;5020304;28;20380;-60
2022/08/17 08:37:48;;;;;;;4.10;3.55;;;26.20;81.10;;;;;;5019984;28;20064;-60
2022/08/17 08:40:41;;;;;;;5.18;3.85;;;26.20;81.30;;;;;;5024238;28;20148;-61
2022/08/17 08:43:16;;;;;;;4.85;3.83;;;26.20;81.20;;;;;;5024413;28;20033;-60
2022/08/17 08:45:55;;;;;;;5.90;4.68;;;26.20;81.10;;;;;;5016948;28;20029;-60
2022/08/17 08:48:36;;;;;;;5.13;3.90;;;26.20;81.20;;;;;;5029453;28;20485;-58
2022/08/17 08:51:12;;;;;;;6.35;4.47;;;26.10;81.00;;;;;;5026636;28;20637;-59
2022/08/17 08:53:59;;;;;;;4.18;3.78;;;26.10;81.00;;;;;;5026483;28;20500;-58
2022/08/17 08:56:50;;;;;;;4.80;3.95;;;26.10;81.10;;;;;;5019727;28;20033;-59
2022/08/17 08:59:34;;;;;;;5.13;4.60;;;26.10;81.20;;;;;;5020682;28;21006;-60
2022/08/17 09:02:02;;;;;;;4.65;3.75;;;26.10;81.00;;;;;;5018125;28;20044;-60
2022/08/17 09:04:37;;;;;;;6.25;3.95;;;26.10;80.90;;;;;;5023853;28;20108;-62
2022/08/17 09:07:02;;;;;;;4.55;3.75;;;26.00;80.70;;;;;;5025781;28;20708;-60
2022/08/17 09:10:00;;;;;;;6.47;4.43;;;26.00;80.80;;;;;;5024556;28;20028;-61
2022/08/17 09:12:52;;;;;;;7.00;4.43;;;26.00;80.80;;;;;;5023697;28;20091;-60
2022/08/17 09:15:32;;;;;;;5.50;4.70;;;26.00;80.80;;;;;;5023579;28;20052;-60
2022/08/17 09:18:12;;;;;;;6.55;5.30;;;26.00;80.80;;;;;;5020436;28;20029;-58
2022/08/17 09:20:46;;;;;;;7.20;5.68;;;26.00;80.80;;;;;;5012121;28;20473;-59
2022/08/17 09:23:37;;;;;;;6.47;5.45;;;26.00;80.80;;;;;;5020970;28;20041;-59
2022/08/17 09:26:20;;;;;;;5.80;5.03;;;26.00;80.70;;;;;;5023625;28;20054;-59
2022/08/17 09:28:51;;;;;;;5.40;4.85;;;26.00;80.50;;;;;;5016053;28;20713;-59
2022/08/17 09:31:22;;;;;;;5.47;4.57;;;26.00;80.40;;;;;;5024396;28;20021;-60
2022/08/17 09:33:50;;;;;;;5.25;4.10;;;26.00;80.60;;;;;;5022623;28;20136;-59
2022/08/17 09:36:31;;;;;;;5.10;4.60;;;26.00;80.50;;;;;;5023834;28;20051;-59
2022/08/17 09:39:14;;;;;;;7.60;5.13;;;26.00;80.30;;;;;;5016333;28;20105;-60
2022/08/17 09:42:21;;;;;;;5.10;4.47;;;26.00;80.30;;;;;;5018528;28;20187;-60
2022/08/17 09:45:02;;;;;;;4.93;4.03;;;26.00;80.30;;;;;;5016031;28;20088;-60
2022/08/17 09:47:53;;;;;;;7.50;4.57;;;25.90;80.40;;;;;;5018440;28;20029;-60
2022/08/17 09:50:39;;;;;;;5.72;4.00;;;26.00;80.40;;;;;;5023262;28;20025;-61
2022/08/17 09:53:06;;;;;;;5.57;4.40;;;26.00;80.20;;;;;;5013955;28;20102;-59
2022/08/17 09:55:42;;;;;;;7.85;4.88;;;26.00;80.40;;;;;;5016648;28;20036;-60
2022/08/17 09:58:32;;;;;;;4.13;3.70;;;26.00;80.20;;;;;;5017334;28;20044;-60
2022/08/17 10:01:25;;;;;;;5.60;4.22;;;26.10;80.10;;;;;;5015736;28;20328;-60
2022/08/17 10:04:31;;;;;;;5.55;4.10;;;26.10;80.10;;;;;;5014192;28;20051;-60
2022/08/17 10:07:18;;;;;;;4.78;3.92;;;26.10;80.10;;;;;;5022597;28;20021;-60
2022/08/17 10:09:54;;;;;;;5.10;3.95;;;26.20;80.10;;;;;;5032856;28;20182;-60
2022/08/17 10:12:34;;;;;;;5.13;3.28;;;26.30;80.00;;;;;;5030086;28;20104;-60
2022/08/17 10:15:38;;;;;;;4.40;3.55;;;26.30;79.70;;;;;;5025064;28;20079;-60
2022/08/17 10:18:20;;;;;;;5.25;3.63;;;26.40;79.70;;;;;;5004999;28;20135;-60
2022/08/17 10:27:14;;;;;;;4.38;3.60;;;26.40;79.40;;;;;;5026948;28;20040;-60
2022/08/17 10:29:53;;;;;;;4.82;3.20;;;26.40;79.10;;;;;;5027541;28;20029;-63
2022/08/17 10:32:32;;;;;;;3.50;2.90;;;26.50;78.80;;;;;;5029162;28;20062;-61
2022/08/17 10:35:13;;;;;;;4.03;3.13;;;26.50;78.70;;;;;;5028284;28;21757;-59
2022/08/17 10:38:08;;;;;;;4.30;3.50;;;26.50;78.60;;;;;;5018455;28;20037;-60
2022/08/17 10:40:36;;;;;;;5.75;3.85;;;26.50;78.60;;;;;;4995257;28;20053;-61
2022/08/17 10:43:35;;;;;;;3.55;3.20;;;26.50;78.40;;;;;;5026340;28;20119;-60
2022/08/17 10:46:23;;;;;;;3.83;3.20;;;26.50;78.20;;;;;;5024111;28;22773;-61
2022/08/17 10:49:11;;;;;;;4.47;3.38;;;26.40;78.00;;;;;;5024120;28;20036;-61
2022/08/17 10:51:39;;;;;;;3.97;3.30;;;26.40;77.90;;;;;;5021156;28;20025;-61
2022/08/17 10:54:26;;;;;;;6.65;4.00;;;26.40;78.10;;;;;;5019317;28;20653;-61
2022/08/17 10:56:54;;;;;;;4.55;3.40;;;26.40;78.00;;;;;;5016273;28;20025;-61
2022/08/17 10:59:35;;;;;;;4.82;3.80;;;26.40;78.10;;;;;;5017171;28;20066;-61
2022/08/17 11:02:10;;;;;;;4.15;3.15;;;26.40;78.00;;;;;;5016722;28;20029;-60
2022/08/17 11:04:45;;;;;;;4.43;3.47;;;26.40;78.00;;;;;;5024267;28;20021;-60
2022/08/17 11:07:20;;;;;;;3.95;3.10;;;26.40;78.60;;;;;;5032822;28;20519;-60
2022/08/17 11:09:57;;;;;;;3.90;3.47;;;26.40;78.10;;;;;;5032697;28;21665;-60
2022/08/17 11:12:49;;;;;;;6.05;4.35;;;26.40;78.40;;;;;;5027484;28;20435;-60
2022/08/17 11:15:18;;;;;;;5.60;4.35;;;26.40;78.40;;;;;;5030469;28;20163;-59
2022/08/17 11:18:05;;;;;;;5.88;4.82;;;26.40;78.30;;;;;;5033634;28;20032;-59
2022/08/17 11:21:00;;;;;;;6.03;4.35;;;26.40;78.40;;;;;;5029393;28;20064;-60
2022/08/17 11:24:04;;;;;;;5.68;4.80;;;26.40;78.60;;;;;;5025299;28;20045;-63
2022/08/17 11:26:35;;;;;;;5.70;4.10;;;26.40;78.30;;;;;;5029891;28;20071;-61
2022/08/17 11:29:26;;;;;;;6.05;5.05;;;26.40;78.50;;;;;;5035218;28;20408;-62
2022/08/17 11:32:03;;;;;;;4.88;3.90;;;26.40;78.50;;;;;;5030011;28;20048;-59
2022/08/17 11:34:31;;;;;;;4.35;3.72;;;26.40;78.40;;;;;;5033595;28;20041;-61
2022/08/17 11:37:07;;;;;;;5.05;4.05;;;26.40;78.50;;;;;;5028918;28;20400;-60
2022/08/17 11:40:03;;;;;;;4.70;3.70;;;26.40;78.40;;;;;;5024322;28;20037;-60
2022/08/17 11:42:48;;;;;;;5.63;3.97;;;26.40;78.40;;;;;;5035710;28;20037;-60
2022/08/17 11:45:38;;;;;;;8.00;5.22;;;26.40;78.60;;;;;;5030453;28;20711;-61
2022/08/17 11:51:32;;;;;;;6.25;4.85;;;26.40;79.00;;;;;;5024717;28;20052;-61
2022/08/17 11:54:09;;;;;;;6.13;4.90;;;26.40;79.10;;;;;;5037133;28;20095;-61
2022/08/17 11:56:45;;;;;;;5.57;4.95;;;26.40;78.80;;;;;;5027402;28;20091;-60
2022/08/17 11:59:33;;;;;;;7.35;6.15;;;26.40;78.30;;;;;;5033063;28;20110;-61
2022/08/17 12:02:01;;;;;;;6.68;4.97;;;26.40;78.40;;;;;;5028478;28;20428;-61
2022/08/17 12:04:33;;;;;;;8.00;5.15;;;26.40;78.20;;;;;;5029175;28;20024;-62
2022/08/17 12:07:10;;;;;;;7.25;5.50;;;26.40;78.20;;;;;;5033984;28;20021;-60
2022/08/17 12:09:41;;;;;;;6.60;5.00;;;26.40;78.20;;;;;;5028470;28;20589;-62
2022/08/17 12:12:15;;;;;;;6.28;5.10;;;26.40;78.00;;;;;;5026850;28;21242;-62
2022/08/17 12:14:52;;;;;;;5.40;4.90;;;26.40;78.20;;;;;;5013597;28;20033;-61
2022/08/17 12:17:24;;;;;;;6.78;5.32;;;26.50;78.00;;;;;;5018949;28;20391;-61
2022/08/17 12:19:51;;;;;;;6.43;4.50;;;26.50;78.00;;;;;;5024965;28;20033;-61
2022/08/17 12:22:27;;;;;;;5.75;4.18;;;26.50;77.90;;;;;;5027764;28;20029;-60
2022/08/17 12:25:24;;;;;;;7.03;4.65;;;26.50;77.60;;;;;;5023402;28;20036;-60
2022/08/17 12:27:50;;;;;;;7.32;4.43;;;26.50;77.20;;;;;;5029534;28;20018;-62
2022/08/17 12:30:20;;;;;;;5.93;4.18;;;26.50;77.20;;;;;;5034380;28;20500;-64
2022/08/17 12:32:47;;;;;;;5.40;4.43;;;26.50;77.30;;;;;;5024734;28;20045;-62
2022/08/17 12:35:37;;;;;;;4.90;4.22;;;26.60;77.30;;;;;;5020348;28;20144;-66
2022/08/17 12:38:06;;;;;;;;;;;26.60;77.10;;;;;;5032366;28;20025;-62
2022/08/17 12:40:32;;;;;;;4.93;4.38;;;26.50;77.20;;;;;;5024284;28;20004;-64
2022/08/17 12:43:06;;;;;;;6.57;5.00;;;26.50;77.20;;;;;;5025438;28;20029;-62
2022/08/17 12:45:40;;;;;;;6.13;4.45;;;26.60;76.90;;;;;;5023845;28;20152;-61
2022/08/17 12:48:12;;;;;;;6.82;4.68;;;26.60;76.90;;;;;;5028310;28;20074;-59
2022/08/17 12:50:43;;;;;;;7.47;4.85;;;26.50;76.80;;;;;;5023666;28;20119;-59
2022/08/17 12:53:14;;;;;;;6.78;4.75;;;26.60;76.90;;;;;;5023183;28;20024;-59
2022/08/17 12:55:43;;;;;;;5.95;4.22;;;26.60;76.90;;;;;;5008781;28;20175;-60
2022/08/17 12:58:18;;;;;;;4.95;4.43;;;26.60;77.10;;;;;;5024211;28;20306;-61
2022/08/17 13:00:55;;;;;;;5.95;5.07;;;26.60;77.00;;;;;;5033393;28;20405;-60
2022/08/17 13:03:25;;;;;;;6.93;5.30;;;26.60;77.00;;;;;;5022259;28;20033;-61
2022/08/17 13:06:01;;;;;;;4.80;4.30;;;26.50;76.70;;;;;;5025320;28;20033;-60
2022/08/17 13:08:31;;;;;;;5.47;4.82;;;26.60;76.70;;;;;;5032999;28;20039;-59
2022/08/17 13:11:03;;;;;;;5.45;4.53;;;26.60;76.60;;;;;;5029037;28;20485;-64
2022/08/17 13:13:32;;;;;;;5.43;4.28;;;26.60;76.50;;;;;;5030842;28;20029;-64
2022/08/17 13:16:00;;;;;;;5.80;5.00;;;26.60;76.30;;;;;;5033428;28;22275;-61
2022/08/17 13:18:37;;;;;;;7.03;4.70;;;26.60;76.20;;;;;;5028072;28;20036;-63
2022/08/17 13:21:04;;;;;;;5.97;4.45;;;26.70;76.00;;;;;;5030323;28;20503;-60
2022/08/17 13:23:31;;;;;;;5.35;4.38;;;26.70;75.70;;;;;;5025944;28;20025;-59
2022/08/17 13:26:13;;;;;;;5.20;4.22;;;26.70;75.50;;;;;;5035010;28;20559;-60
2022/08/17 13:28:48;;;;;;;4.25;3.85;;;26.80;75.10;;;;;;5028887;28;21051;-59
2022/08/17 13:31:31;;;;;;;5.30;3.97;;;26.80;75.30;;;;;;5028444;28;20029;-59
2022/08/17 13:34:25;;;;;;;6.38;3.80;;;26.80;75.00;;;;;;5033371;28;20044;-63
2022/08/17 13:37:12;;;;;;;4.85;3.60;;;26.90;74.90;;;;;;5031183;28;20025;-61
2022/08/17 13:39:40;;;;;;;4.95;3.92;;;26.90;74.50;;;;;;5029938;28;20048;-61
2022/08/17 13:42:30;;;;;;;5.28;3.70;;;26.90;74.00;;;;;;5025601;28;20042;-61
2022/08/17 13:44:56;;;;;;;4.88;3.22;;;27.00;73.50;;;;;;5025670;28;20027;-64
2022/08/17 13:47:23;;;;;;;4.60;3.60;;;27.00;73.50;;;;;;5025921;28;20480;-62
2022/08/17 13:49:49;;;;;;;5.07;4.25;;;27.10;73.40;;;;;;5017745;28;20025;-60
2022/08/17 13:52:40;;;;;;;6.45;3.92;;;27.10;73.00;;;;;;5020262;28;20064;-60
2022/08/17 13:55:13;;;;;;;;;;;27.20;72.50;;;;;;5025662;28;20047;-60
2022/08/17 13:57:44;;;;;;;5.05;4.03;;;27.20;71.80;;;;;;5017610;28;20148;-60
2022/08/17 14:00:32;;;;;;;4.38;3.58;;;27.20;72.50;;;;;;5016918;28;20057;-61
2022/08/17 14:02:59;;;;;;;2.97;2.67;;;27.30;72.40;;;;;;5020227;28;20491;-62
2022/08/17 14:05:25;;;;;;;3.97;3.45;;;27.30;72.60;;;;;;5026673;28;20035;-61
2022/08/17 14:08:00;;;;;;;4.05;3.10;;;27.30;72.40;;;;;;5023545;28;20112;-61